createdAt,value
2018-05-08T00:01:30.954Z,100750
2018-05-08T00:04:00.403Z,100749
2018-05-08T00:06:28.974Z,100754
2018-05-08T00:08:57.188Z,100733
2018-05-08T00:11:25.629Z,100741
2018-05-08T00:13:54.133Z,100737
2018-05-08T00:16:22.695Z,100733
2018-05-08T00:18:50.912Z,100734
2018-05-08T00:21:19.925Z,100737
2018-05-08T00:23:48.447Z,100731
2018-05-08T00:26:17.044Z,100726
2018-05-08T00:28:45.637Z,100730
2018-05-08T00:31:14.152Z,100738
2018-05-08T00:33:43.460Z,100733
2018-05-08T00:36:12.872Z,100729
2018-05-08T00:38:41.173Z,100725
2018-05-08T00:41:09.388Z,100721
2018-05-08T00:43:37.585Z,100723
2018-05-08T00:46:05.804Z,100724
2018-05-08T00:48:34.661Z,100714
2018-05-08T00:51:02.809Z,100712
2018-05-08T00:53:32.660Z,100717
2018-05-08T00:56:01.445Z,100714
2018-05-08T00:58:29.617Z,100718
2018-05-08T01:00:57.707Z,100710
2018-05-08T01:03:26.018Z,100698
2018-05-08T01:05:54.766Z,100697
2018-05-08T01:08:23.539Z,100701
2018-05-08T01:10:51.727Z,100700
2018-05-08T01:13:20.787Z,100701
2018-05-08T01:15:49.821Z,100704
2018-05-08T01:18:18.112Z,100705
2018-05-08T01:20:46.220Z,100703
2018-05-08T01:23:14.525Z,100704
2018-05-08T01:25:42.871Z,100699
2018-05-08T01:28:12.413Z,100692
2018-05-08T01:30:41.165Z,100696
2018-05-08T01:33:09.517Z,100695
2018-05-08T01:35:38.385Z,100698
2018-05-08T01:38:07.393Z,100693
2018-05-08T01:40:35.608Z,100689
2018-05-08T01:43:04.568Z,100688
2018-05-08T01:45:33.314Z,100681
2018-05-08T01:48:03.127Z,100685
2018-05-08T01:50:32.019Z,100686
2018-05-08T01:53:02.960Z,100684
2018-05-08T01:55:31.467Z,100680
2018-05-08T01:57:59.776Z,100665
2018-05-08T02:00:28.609Z,100672
2018-05-08T02:02:58.496Z,100672
2018-05-08T02:05:28.173Z,100672
2018-05-08T02:07:56.935Z,100665
2018-05-08T02:10:25.747Z,100663
2018-05-08T02:12:54.087Z,100657
2018-05-08T02:15:22.164Z,100661
2018-05-08T02:17:51.048Z,100664
2018-05-08T02:20:22.627Z,100661
2018-05-08T02:22:50.951Z,100656
2018-05-08T02:25:20.025Z,100648
2018-05-08T02:27:48.990Z,100657
2018-05-08T02:30:17.236Z,100645
2018-05-08T02:32:45.571Z,100648
2018-05-08T02:35:13.876Z,100646
2018-05-08T02:37:42.163Z,100649
2018-05-08T02:40:10.463Z,100639
2018-05-08T02:42:38.708Z,100646
2018-05-08T02:45:07.597Z,100645
2018-05-08T02:47:35.888Z,100635
2018-05-08T02:50:04.073Z,100643
2018-05-08T02:52:32.417Z,100635
2018-05-08T02:55:00.716Z,100647
2018-05-08T02:57:29.047Z,100632
2018-05-08T02:59:58.736Z,100635
2018-05-08T03:02:26.816Z,100639
2018-05-08T03:04:55.576Z,100631
2018-05-08T03:07:23.896Z,100633
2018-05-08T03:09:52.252Z,100627
2018-05-08T03:12:20.547Z,100629
2018-05-08T03:14:52.896Z,100622
2018-05-08T03:17:21.629Z,100626
2018-05-08T03:19:51.299Z,100622
2018-05-08T03:22:19.670Z,100625
2018-05-08T03:24:47.921Z,100632
2018-05-08T03:27:16.263Z,100622
2018-05-08T03:29:45.900Z,100623
2018-05-08T03:32:15.424Z,100626
2018-05-08T03:34:43.774Z,100622
2018-05-08T03:37:13.361Z,100624
2018-05-08T03:39:42.212Z,100617
2018-05-08T03:42:11.119Z,100623
2018-05-08T03:44:39.409Z,100612
2018-05-08T03:47:07.613Z,100613
2018-05-08T03:49:37.147Z,100611
2018-05-08T03:52:05.436Z,100612
2018-05-08T03:54:34.230Z,100605
2018-05-08T03:57:02.540Z,100607
2018-05-08T03:59:31.303Z,100602
2018-05-08T04:02:17.781Z,100612
2018-05-08T04:05:04.080Z,100606
2018-05-08T04:07:50.696Z,100595
2018-05-08T04:10:18.801Z,100595
2018-05-08T04:12:46.947Z,100596
2018-05-08T04:15:15.226Z,100596
2018-05-08T04:17:44.002Z,100587
2018-05-08T04:20:12.432Z,100591
2018-05-08T04:22:41.191Z,100580
2018-05-08T04:25:09.366Z,100586
2018-05-08T04:27:38.354Z,100582
2018-05-08T04:30:07.146Z,100587
2018-05-08T04:32:35.436Z,100580
2018-05-08T04:35:03.613Z,100579
2018-05-08T04:37:33.608Z,100576
2018-05-08T04:40:02.402Z,100572
2018-05-08T04:42:31.210Z,100576
2018-05-08T04:44:59.323Z,100571
2018-05-08T04:47:28.199Z,100566
2018-05-08T04:49:56.456Z,100565
2018-05-08T04:52:25.216Z,100572
2018-05-08T04:54:53.306Z,100573
2018-05-08T04:57:21.445Z,100570
2018-05-08T04:59:50.077Z,100566
2018-05-08T05:02:18.601Z,100562
2018-05-08T05:04:46.896Z,100558
2018-05-08T05:07:15.712Z,100554
2018-05-08T05:09:44.569Z,100561
2018-05-08T05:12:13.362Z,100552
2018-05-08T05:14:42.904Z,100556
2018-05-08T05:17:11.264Z,100556
2018-05-08T05:19:40.883Z,100551
2018-05-08T05:22:09.132Z,100553
2018-05-08T05:24:38.912Z,100558
2018-05-08T05:27:07.819Z,100564
2018-05-08T05:29:36.131Z,100562
2018-05-08T05:32:04.413Z,100566
2018-05-08T05:34:33.271Z,100554
2018-05-08T05:37:02.187Z,100552
2018-05-08T05:39:31.075Z,100545
2018-05-08T05:41:59.844Z,100545
2018-05-08T05:44:28.731Z,100549
2018-05-08T05:46:57.536Z,100539
2018-05-08T05:49:26.166Z,100548
2018-05-08T05:51:55.001Z,100554
2018-05-08T05:54:23.067Z,100549
2018-05-08T05:56:52.468Z,100550
2018-05-08T05:59:23.113Z,100546
2018-05-08T06:01:54.528Z,100536
2018-05-08T06:04:23.654Z,100544
2018-05-08T06:06:52.458Z,100542
2018-05-08T06:09:23.171Z,100533
2018-05-08T06:11:54.188Z,100540
2018-05-08T06:14:28.800Z,100537
2018-05-08T06:16:58.648Z,100529
2018-05-08T06:19:28.053Z,100528
2018-05-08T06:21:56.337Z,100541
2018-05-08T06:24:24.668Z,100532
2018-05-08T06:26:53.548Z,100534
2018-05-08T06:29:21.875Z,100525
2018-05-08T06:31:50.671Z,100517
2018-05-08T06:34:20.463Z,100525
2018-05-08T06:36:49.265Z,100524
2018-05-08T06:39:23.133Z,100529
2018-05-08T06:41:51.208Z,100526
2018-05-08T06:44:20.793Z,100526
2018-05-08T06:46:50.008Z,100516
2018-05-08T06:49:18.545Z,100524
2018-05-08T06:51:46.859Z,100517
2018-05-08T06:54:15.932Z,100527
2018-05-08T06:56:44.543Z,100517
2018-05-08T06:59:15.737Z,100528
2018-05-08T07:01:43.900Z,100525
2018-05-08T07:04:11.988Z,100515
2018-05-08T07:06:40.100Z,100512
2018-05-08T07:09:08.340Z,100519
2018-05-08T07:11:36.639Z,100517
2018-05-08T07:14:04.769Z,100514
2018-05-08T07:16:32.858Z,100503
2018-05-08T07:19:01.172Z,100513
2018-05-08T07:21:29.465Z,100508
2018-05-08T07:23:58.317Z,100512
2018-05-08T07:26:27.437Z,100508
2018-05-08T07:28:55.761Z,100501
2018-05-08T07:31:23.845Z,100498
2018-05-08T07:33:51.944Z,100504
2018-05-08T07:36:20.042Z,100493
2018-05-08T07:38:48.166Z,100489
2018-05-08T07:41:16.442Z,100497
2018-05-08T07:43:44.524Z,100497
2018-05-08T07:46:12.843Z,100498
2018-05-08T07:48:41.083Z,100513
2018-05-08T07:51:09.409Z,100506
2018-05-08T07:53:37.723Z,100508
2018-05-08T07:56:06.506Z,100495
2018-05-08T07:58:35.312Z,100499
2018-05-08T08:01:03.374Z,100495
2018-05-08T08:03:31.722Z,100490
2018-05-08T08:06:00.568Z,100498
2018-05-08T08:08:28.885Z,100503
2018-05-08T08:10:57.484Z,100495
2018-05-08T08:13:25.799Z,100492
2018-05-08T08:15:53.904Z,100492
2018-05-08T08:18:22.179Z,100486
2018-05-08T08:20:51.037Z,100496
2018-05-08T08:23:19.810Z,100489
2018-05-08T08:25:48.111Z,100493
2018-05-08T08:28:16.385Z,100492
2018-05-08T08:33:30.176Z,100479
2018-05-08T08:36:00.260Z,100480
2018-05-08T08:38:31.304Z,100481
2018-05-08T08:41:00.253Z,100479
2018-05-08T08:43:29.252Z,100474
2018-05-08T08:45:57.596Z,100478
2018-05-08T08:48:27.860Z,100476
2018-05-08T08:50:56.560Z,100474
2018-05-08T08:53:31.282Z,100475
2018-05-08T08:56:01.274Z,100472
2018-05-08T08:58:35.507Z,100473
2018-05-08T09:01:04.196Z,100474
2018-05-08T09:03:32.328Z,100469
2018-05-08T09:06:04.049Z,100466
2018-05-08T09:08:32.754Z,100460
2018-05-08T09:11:00.828Z,100461
2018-05-08T09:13:30.073Z,100455
2018-05-08T09:15:58.283Z,100456
2018-05-08T09:18:28.088Z,100449
2018-05-08T09:20:56.188Z,100452
2018-05-08T09:23:25.208Z,100446
2018-05-08T09:25:55.943Z,100437
2018-05-08T09:28:27.696Z,100438
2018-05-08T09:30:57.038Z,100439
2018-05-08T09:33:26.028Z,100436
2018-05-08T09:35:55.745Z,100436
2018-05-08T09:38:25.768Z,100428
2018-05-08T09:40:57.069Z,100422
2018-05-08T09:43:25.098Z,100422
2018-05-08T09:45:53.184Z,100420
2018-05-08T09:48:22.260Z,100418
2018-05-08T09:50:50.568Z,100406
2018-05-08T09:53:19.635Z,100411
2018-05-08T09:55:48.499Z,100396
2018-05-08T09:58:16.832Z,100391
2018-05-08T10:00:47.641Z,100389
2018-05-08T10:03:20.695Z,100384
2018-05-08T10:05:49.520Z,100376
2018-05-08T10:08:18.403Z,100377
2018-05-08T10:10:47.185Z,100379
2018-05-08T10:13:15.355Z,100373
2018-05-08T10:15:44.135Z,100372
2018-05-08T10:18:14.804Z,100377
2018-05-08T10:20:42.918Z,100370
2018-05-08T10:23:12.966Z,100370
2018-05-08T10:25:41.858Z,100366
2018-05-08T10:28:10.531Z,100364
2018-05-08T10:30:38.761Z,100362
2018-05-08T10:33:07.183Z,100360
2018-05-08T10:35:38.332Z,100340
2018-05-08T10:38:07.913Z,100338
2018-05-08T10:40:36.434Z,100340
2018-05-08T10:43:04.534Z,100346
2018-05-08T10:45:33.395Z,100349
2018-05-08T10:48:01.706Z,100342
2018-05-08T10:50:29.809Z,100337
2018-05-08T10:52:57.905Z,100335
2018-05-08T10:55:26.214Z,100342
2018-05-08T10:57:55.081Z,100335
2018-05-08T11:00:26.265Z,100331
2018-05-08T11:02:56.713Z,100325
2018-05-08T11:05:25.590Z,100330
2018-05-08T11:07:54.283Z,100336
2018-05-08T11:10:22.642Z,100326
2018-05-08T11:12:50.939Z,100320
2018-05-08T11:15:19.054Z,100326
2018-05-08T11:17:47.189Z,100317
2018-05-08T11:20:16.023Z,100322
2018-05-08T11:22:44.191Z,100313
2018-05-08T11:25:12.516Z,100314
2018-05-08T11:27:40.618Z,100305
2018-05-08T11:30:08.751Z,100298
2018-05-08T11:32:37.055Z,100309
2018-05-08T11:35:06.101Z,100301
2018-05-08T11:37:40.224Z,100292
2018-05-08T11:40:08.319Z,100289
2018-05-08T11:42:36.501Z,100283
2018-05-08T11:45:04.835Z,100286
2018-05-08T11:47:34.088Z,100289
2018-05-08T11:50:02.292Z,100290
2018-05-08T11:52:30.300Z,100280
2018-05-08T11:54:58.629Z,100279
2018-05-08T11:57:27.839Z,100277
2018-05-08T11:59:56.147Z,100273
2018-05-08T12:02:25.168Z,100274
2018-05-08T12:04:55.749Z,100268
2018-05-08T12:07:25.464Z,100262
2018-05-08T12:09:54.453Z,100264
2018-05-08T12:12:22.757Z,100261
2018-05-08T12:14:50.963Z,100263
2018-05-08T12:17:19.251Z,100255
2018-05-08T12:19:49.084Z,100253
2018-05-08T12:22:18.223Z,100259
2018-05-08T12:24:46.309Z,100263
2018-05-08T12:27:16.093Z,100259
2018-05-08T12:29:45.020Z,100254
2018-05-08T12:32:13.111Z,100254
2018-05-08T12:34:42.641Z,100251
2018-05-08T12:37:12.037Z,100248
2018-05-08T12:39:41.299Z,100243
2018-05-08T12:42:10.169Z,100242
2018-05-08T12:44:38.917Z,100244
2018-05-08T12:47:07.721Z,100237
2018-05-08T12:49:36.238Z,100238
2018-05-08T12:52:04.658Z,100231
2018-05-08T12:54:32.971Z,100241
2018-05-08T12:57:01.283Z,100234
2018-05-08T12:59:29.584Z,100228
2018-05-08T13:01:57.884Z,100229
2018-05-08T13:04:26.688Z,100220
2018-05-08T13:06:55.586Z,100226
2018-05-08T13:09:23.942Z,100221
2018-05-08T13:11:53.145Z,100211
2018-05-08T13:14:22.137Z,100212
2018-05-08T13:16:50.260Z,100220
2018-05-08T13:19:18.622Z,100217
2018-05-08T13:21:48.904Z,100206
2018-05-08T13:24:18.641Z,100209
2018-05-08T13:26:46.849Z,100205
2018-05-08T13:29:14.925Z,100202
2018-05-08T13:31:45.388Z,100201
2018-05-08T13:34:15.121Z,100195
2018-05-08T13:36:43.255Z,100192
2018-05-08T13:39:11.343Z,100193
2018-05-08T13:41:39.463Z,100191
2018-05-08T13:44:07.980Z,100185
2018-05-08T13:46:36.504Z,100188
2018-05-08T13:49:07.638Z,100189
2018-05-08T13:51:35.972Z,100186
2018-05-08T13:54:05.351Z,100185
2018-05-08T13:56:34.364Z,100186
2018-05-08T13:59:03.506Z,100178
2018-05-08T14:01:32.072Z,100176
2018-05-08T14:04:00.581Z,100177
2018-05-08T14:06:29.331Z,100167
2018-05-08T14:08:58.075Z,100169
2018-05-08T14:11:28.413Z,100170
2018-05-08T14:13:59.116Z,100166
2018-05-08T14:18:59.777Z,100163
2018-05-08T14:21:28.096Z,100162
2018-05-08T14:23:59.000Z,100159
2018-05-08T14:26:27.100Z,100153
2018-05-08T14:28:56.997Z,100153
2018-05-08T14:31:25.457Z,100096
2018-05-08T14:33:54.237Z,100150
2018-05-08T14:36:22.335Z,100150
2018-05-08T14:38:51.084Z,100148
2018-05-08T14:41:19.907Z,100144
2018-05-08T14:43:48.017Z,100147
2018-05-08T14:46:16.869Z,100139
2018-05-08T14:48:45.228Z,100141
2018-05-08T14:51:13.300Z,100140
2018-05-08T14:53:41.667Z,100134
2018-05-08T14:56:10.291Z,100132
2018-05-08T14:58:38.602Z,100139
2018-05-08T15:01:08.441Z,100138
2018-05-08T15:03:37.155Z,100131
2018-05-08T15:06:05.468Z,100125
2018-05-08T15:08:34.441Z,100123
2018-05-08T15:11:03.286Z,100126
2018-05-08T15:13:31.527Z,100125
2018-05-08T15:16:01.772Z,100117
2018-05-08T15:18:30.624Z,100120
2018-05-08T15:20:59.397Z,100117
2018-05-08T15:23:27.840Z,100120
2018-05-08T15:25:55.918Z,100112
2018-05-08T15:28:24.032Z,100113
2018-05-08T15:30:55.394Z,100107
2018-05-08T15:33:24.072Z,100107
2018-05-08T15:35:52.230Z,100104
2018-05-08T15:38:20.381Z,100109
2018-05-08T15:40:48.653Z,100107
2018-05-08T15:43:17.268Z,100100
2018-05-08T15:45:45.554Z,100101
2018-05-08T15:48:13.883Z,100097
2018-05-08T15:50:42.672Z,100092
2018-05-08T15:53:10.999Z,100090
2018-05-08T15:55:39.843Z,100081
2018-05-08T15:58:07.917Z,100086
2018-05-08T16:00:36.761Z,100085
2018-05-08T16:03:05.024Z,100083
2018-05-08T16:05:34.727Z,100080
2018-05-08T16:08:03.506Z,100080
2018-05-08T16:10:32.371Z,100076
2018-05-08T16:13:00.816Z,100076
2018-05-08T16:15:30.584Z,100076
2018-05-08T16:18:01.192Z,100079
2018-05-08T16:20:30.809Z,100083
2018-05-08T16:23:00.365Z,100073
2018-05-08T16:25:29.168Z,100077
2018-05-08T16:27:57.269Z,100068
2018-05-08T16:30:26.025Z,100079
2018-05-08T16:32:54.258Z,100079
2018-05-08T16:35:23.028Z,100081
2018-05-08T16:37:51.166Z,100076
2018-05-08T16:40:19.472Z,100067
2018-05-08T16:42:48.254Z,100074
2018-05-08T16:45:16.700Z,100078
2018-05-08T16:47:45.763Z,100083
2018-05-08T16:50:14.077Z,100077
2018-05-08T16:52:42.360Z,100076
2018-05-08T16:55:11.539Z,100073
2018-05-08T16:57:39.804Z,100016
2018-05-08T17:00:08.663Z,100075
2018-05-08T17:02:38.158Z,100077
2018-05-08T17:05:06.493Z,100067
2018-05-08T17:07:35.474Z,100068
2018-05-08T17:10:03.584Z,100082
2018-05-08T17:12:32.445Z,100066
2018-05-08T17:15:00.644Z,100080
2018-05-08T17:17:29.504Z,100066
2018-05-08T17:19:58.288Z,100065
2018-05-08T17:22:26.559Z,100059
2018-05-08T17:24:55.891Z,100066
2018-05-08T17:27:24.669Z,100062
2018-05-08T17:29:53.708Z,100060
2018-05-08T17:32:22.800Z,100052
2018-05-08T17:34:51.537Z,100056
2018-05-08T17:37:20.152Z,100054
2018-05-08T17:39:49.221Z,100059
2018-05-08T17:42:19.023Z,100055
2018-05-08T17:44:47.340Z,100061
2018-05-08T17:47:16.932Z,100057
2018-05-08T17:49:45.697Z,100066
2018-05-08T17:52:14.345Z,100058
2018-05-08T17:54:43.946Z,100063
2018-05-08T17:57:12.244Z,100060
2018-05-08T17:59:41.317Z,100053
2018-05-08T18:02:10.133Z,100059
2018-05-08T18:04:38.693Z,100060
2018-05-08T18:07:07.520Z,100052
2018-05-08T18:09:35.625Z,100057
2018-05-08T18:12:04.108Z,100061
2018-05-08T18:14:34.219Z,100065
2018-05-08T18:17:03.078Z,100060
2018-05-08T18:19:31.926Z,100074
2018-05-08T18:22:01.546Z,100063
2018-05-08T18:24:29.888Z,100060
2018-05-08T18:26:58.441Z,100065
2018-05-08T18:29:26.832Z,100075
2018-05-08T18:31:54.927Z,100076
2018-05-08T18:34:24.836Z,100078
2018-05-08T18:36:54.693Z,100073
2018-05-08T18:39:24.297Z,100069
2018-05-08T18:41:52.681Z,100078
2018-05-08T18:44:21.429Z,100080
2018-05-08T18:46:49.552Z,100075
2018-05-08T18:49:18.528Z,100070
2018-05-08T18:51:46.783Z,100081
2018-05-08T18:54:15.114Z,100067
2018-05-08T18:56:44.120Z,100085
2018-05-08T18:59:12.439Z,100084
2018-05-08T19:01:40.528Z,100079
2018-05-08T19:04:10.664Z,100092
2018-05-08T19:06:39.465Z,100087
2018-05-08T19:09:07.940Z,100086
2018-05-08T19:11:42.315Z,100091
2018-05-08T19:14:11.967Z,100086
2018-05-08T19:16:40.521Z,100080
2018-05-08T19:19:17.011Z,100091
2018-05-08T19:21:45.776Z,100094
2018-05-08T19:24:20.664Z,100089
2018-05-08T19:26:48.741Z,100098
2018-05-08T19:29:24.444Z,100096
2018-05-08T19:31:52.805Z,100105
2018-05-08T19:34:21.608Z,100101
2018-05-08T19:36:56.969Z,100105
2018-05-08T19:39:25.576Z,100103
2018-05-08T19:41:54.332Z,100104
2018-05-08T19:44:22.473Z,100107
2018-05-08T19:46:50.892Z,100109
2018-05-08T19:49:20.499Z,100114
2018-05-08T19:51:48.984Z,100112
2018-05-08T19:54:18.054Z,100111
2018-05-08T19:56:47.929Z,100122
2018-05-08T19:59:18.058Z,100120
2018-05-08T20:01:47.269Z,100112
2018-05-08T20:04:16.236Z,100112
2018-05-08T20:06:44.495Z,100108
2018-05-08T20:09:13.264Z,100114
2018-05-08T20:11:41.564Z,100110
2018-05-08T20:14:10.506Z,100118
2018-05-08T20:16:39.516Z,100117
2018-05-08T20:19:08.309Z,100122
2018-05-08T20:21:38.841Z,100120
2018-05-08T20:24:07.548Z,100127
2018-05-08T20:26:37.390Z,100117
2018-05-08T20:29:08.076Z,100101
2018-05-08T20:31:36.852Z,100110
2018-05-08T20:34:06.692Z,100115
2018-05-08T20:36:37.887Z,100114
2018-05-08T20:39:06.709Z,100119
2018-05-08T20:41:35.020Z,100116
2018-05-08T20:44:03.797Z,100113
2018-05-08T20:46:32.099Z,100117
2018-05-08T20:49:01.108Z,100120
2018-05-08T20:51:29.848Z,100125
2018-05-08T20:53:59.071Z,100122
2018-05-08T20:56:27.476Z,100118
2018-05-08T20:58:55.809Z,100123
2018-05-08T21:01:24.181Z,100119
2018-05-08T21:03:52.396Z,100124
2018-05-08T21:06:21.249Z,100106
2018-05-08T21:08:50.069Z,100119
2018-05-08T21:11:19.624Z,100115
2018-05-08T21:13:47.868Z,100118
2018-05-08T21:16:16.957Z,100115
2018-05-08T21:18:46.716Z,100121
2018-05-08T21:21:15.516Z,100119
2018-05-08T21:23:44.357Z,100119
2018-05-08T21:26:13.141Z,100124
2018-05-08T21:28:50.293Z,100124
2018-05-08T21:31:18.652Z,100127
2018-05-08T21:33:47.552Z,100127
2018-05-08T21:36:15.733Z,100123
2018-05-08T21:38:44.015Z,100121
2018-05-08T21:41:12.576Z,100108
2018-05-08T21:43:41.693Z,100111
2018-05-08T21:46:10.156Z,100115
2018-05-08T21:48:39.837Z,100105
2018-05-08T21:51:09.783Z,100110
2018-05-08T21:53:41.609Z,100112
2018-05-08T21:56:10.385Z,100113
2018-05-08T21:58:39.577Z,100119
2018-05-08T22:01:07.853Z,100118
2018-05-08T22:03:37.401Z,100118
2018-05-08T22:06:06.982Z,100113
2018-05-08T22:08:35.103Z,100113
2018-05-08T22:11:05.447Z,100115
2018-05-08T22:13:33.787Z,100123
2018-05-08T22:16:02.613Z,100119
2018-05-08T22:18:37.528Z,100132
2018-05-08T22:23:44.980Z,100124
2018-05-08T22:26:14.834Z,100129
2018-05-08T22:31:35.823Z,100119
2018-05-08T22:34:04.122Z,100122
2018-05-08T22:36:33.118Z,100123
2018-05-08T22:39:01.860Z,100117
2018-05-08T22:41:30.139Z,100121
2018-05-08T22:43:58.919Z,100126
2018-05-08T22:46:27.232Z,100118
2018-05-08T22:48:56.051Z,100118
2018-05-08T22:51:25.255Z,100120
2018-05-08T22:53:53.849Z,100112
2018-05-08T22:56:22.308Z,100122
2018-05-08T22:58:51.114Z,100118
2018-05-08T23:01:20.094Z,100116
2018-05-08T23:03:48.871Z,100119
2018-05-08T23:06:17.715Z,100120
2018-05-08T23:08:46.066Z,100118
2018-05-08T23:11:14.349Z,100110
2018-05-08T23:13:43.202Z,100099
2018-05-08T23:16:12.027Z,100106
2018-05-08T23:18:41.016Z,100100
2018-05-08T23:21:09.870Z,100097
2018-05-08T23:23:38.151Z,100093
2018-05-08T23:26:06.940Z,100090
2018-05-08T23:28:35.531Z,100089
2018-05-08T23:31:04.444Z,100093
2018-05-08T23:33:32.830Z,100089
2018-05-08T23:36:02.545Z,100087
2018-05-08T23:38:30.728Z,100078
2018-05-08T23:40:59.474Z,100076
2018-05-08T23:43:27.860Z,100074
2018-05-08T23:45:56.677Z,100070
2018-05-08T23:48:25.445Z,100073
2018-05-08T23:50:54.415Z,100069
2018-05-08T23:53:23.754Z,100070
2018-05-08T23:55:52.660Z,100069
2018-05-08T23:58:20.972Z,100069
